Terminal Aerodrome Forecast
Issued by NWS

Home | Current Version | Previous Version | Text Only | Print | Product List | Glossary On
Versions: 1 2 3 4 5 6 7 8 9 10 11 12 13 14 15 16 17 18 19 20 21 22 23
000
FTUS41 KBOX 160314 AAA
TAFMHT
TAF AMD
KMHT 160314Z 1603/1624 28011G22KT 3SM -RA BR OVC015
     FM160500 31013G20KT 5SM -RAPL OVC010
     FM160600 31012G22KT 3SM -PLSN OVC010
     FM161000 31012G20KT P6SM OVC045
     FM161100 31015G29KT P6SM SCT250
     FM162300 34009KT P6SM SKC=

USA.gov is the U.S. government's official web portal to all federal, state and local government web resources and services.